createdAt,value
2019-03-11T00:00:28.820Z,4.30
2019-03-11T00:05:33.037Z,4.13
2019-03-11T00:10:37.292Z,4.13
2019-03-11T00:15:41.462Z,6.23
2019-03-11T00:20:45.642Z,4.63
2019-03-11T00:25:49.811Z,3.90
2019-03-11T00:30:53.979Z,7.33
2019-03-11T00:35:58.171Z,6.50
2019-03-11T00:41:02.391Z,5.93
2019-03-11T00:46:06.643Z,4.57
2019-03-11T00:51:10.787Z,4.10
2019-03-11T00:56:14.968Z,4.20
2019-03-11T01:01:19.604Z,7.37
2019-03-11T01:06:23.735Z,3.83
2019-03-11T01:11:27.912Z,7.67
2019-03-11T01:16:32.108Z,3.33
2019-03-11T01:21:36.276Z,4.33
2019-03-11T01:26:40.546Z,4.83
2019-03-11T01:31:44.795Z,5.57
2019-03-11T01:36:49.083Z,5.90
2019-03-11T01:41:53.272Z,8.40
2019-03-11T01:46:57.439Z,7.53
2019-03-11T01:52:01.632Z,10.07
2019-03-11T01:57:05.861Z,4.70
2019-03-11T02:02:10.038Z,8.03
2019-03-11T02:07:14.207Z,4.53
2019-03-11T02:12:18.398Z,8.57
2019-03-11T02:17:22.571Z,7.33
2019-03-11T02:22:26.760Z,8.73
2019-03-11T02:27:30.932Z,11.27
2019-03-11T02:32:35.302Z,8.53
2019-03-11T02:37:39.539Z,14.70
2019-03-11T02:42:43.731Z,13.00
2019-03-11T02:47:47.901Z,11.20
2019-03-11T02:52:52.110Z,11.77
2019-03-11T02:57:56.452Z,9.60
2019-03-11T03:03:31.684Z,8.77
2019-03-11T03:08:35.924Z,12.63
2019-03-11T03:13:40.085Z,9.93
2019-03-11T03:18:44.284Z,12.27
2019-03-11T03:23:48.478Z,7.63
2019-03-11T03:28:52.847Z,9.90
2019-03-11T03:33:57.052Z,7.37
2019-03-11T03:39:01.321Z,6.27
2019-03-11T03:44:05.526Z,5.57
2019-03-11T03:49:09.775Z,3.80
2019-03-11T03:54:13.951Z,2.47
2019-03-11T03:59:18.209Z,3.07
2019-03-11T04:04:22.492Z,3.70
2019-03-11T04:09:26.709Z,2.73
2019-03-11T04:14:30.902Z,1.60
2019-03-11T04:19:35.144Z,2.70
2019-03-11T04:24:39.495Z,2.57
2019-03-11T04:29:43.659Z,2.93
2019-03-11T04:34:47.856Z,3.23
2019-03-11T04:39:52.169Z,2.03
2019-03-11T04:44:56.357Z,3.03
2019-03-11T04:50:00.715Z,2.20
2019-03-11T04:55:05.687Z,3.73
2019-03-11T05:00:10.769Z,4.43
2019-03-11T05:05:15.044Z,2.70
2019-03-11T05:10:19.262Z,2.97
2019-03-11T05:15:23.455Z,3.47
2019-03-11T05:20:27.629Z,3.80
2019-03-11T05:25:31.811Z,6.90
2019-03-11T05:30:36.079Z,7.50
2019-03-11T05:35:40.268Z,5.40
2019-03-11T05:40:44.519Z,5.53
2019-03-11T05:45:48.742Z,6.17
2019-03-11T05:50:52.939Z,6.07
2019-03-11T05:55:57.162Z,7.73
2019-03-11T06:01:01.626Z,7.10
2019-03-11T06:06:05.834Z,4.47
2019-03-11T06:11:10.006Z,5.23
2019-03-11T06:16:14.170Z,9.23
2019-03-11T06:21:43.162Z,9.63
2019-03-11T06:26:47.484Z,12.47
2019-03-11T06:31:51.748Z,7.23
2019-03-11T06:36:55.996Z,8.20
2019-03-11T06:42:00.232Z,10.00
2019-03-11T06:47:04.406Z,6.73
2019-03-11T06:52:08.584Z,6.10
2019-03-11T06:57:12.963Z,8.43
2019-03-11T07:02:17.202Z,10.40
2019-03-11T07:07:21.375Z,10.17
2019-03-11T07:12:25.564Z,5.37
2019-03-11T07:17:29.750Z,4.40
2019-03-11T07:22:33.971Z,8.47
2019-03-11T07:27:38.116Z,6.90
2019-03-11T07:32:42.302Z,6.10
2019-03-11T07:37:46.480Z,4.12
2019-03-11T07:42:50.686Z,4.50
2019-03-11T07:47:54.852Z,4.30
2019-03-11T07:52:59.029Z,6.78
2019-03-11T07:58:03.226Z,3.10
2019-03-11T08:03:07.403Z,4.03
2019-03-11T08:08:11.711Z,4.90
2019-03-11T08:13:16.070Z,4.60
2019-03-11T08:18:20.293Z,3.60
2019-03-11T08:23:24.460Z,2.17
2019-03-11T08:28:28.653Z,3.33
2019-03-11T08:33:32.918Z,2.30
2019-03-11T08:38:37.281Z,3.87
2019-03-11T08:43:41.544Z,3.58
2019-03-11T08:48:45.741Z,3.20
2019-03-11T08:53:49.930Z,4.33
2019-03-11T08:58:54.109Z,4.08
2019-03-11T09:03:58.287Z,10.13
2019-03-11T09:09:02.761Z,2.40
2019-03-11T09:14:06.940Z,2.17
2019-03-11T09:19:11.140Z,5.50
2019-03-11T09:24:19.062Z,1.80
2019-03-11T09:29:21.368Z,3.67
2019-03-11T09:34:25.619Z,1.43
2019-03-11T09:39:29.796Z,2.30
2019-03-11T09:44:33.975Z,2.27
2019-03-11T09:49:38.173Z,2.20
2019-03-11T09:54:42.353Z,2.13
2019-03-11T09:59:46.543Z,1.37
2019-03-11T10:04:50.784Z,1.90
2019-03-11T10:09:54.955Z,1.07
2019-03-11T10:14:59.155Z,1.53
2019-03-11T10:20:03.398Z,1.13
2019-03-11T10:25:08.136Z,0.77
2019-03-11T10:30:14.928Z,2.70
2019-03-11T10:35:31.502Z,1.83
2019-03-11T10:40:25.246Z,2.03
2019-03-11T10:45:31.658Z,1.83
2019-03-11T10:50:35.467Z,2.10
2019-03-11T10:55:39.196Z,3.90
2019-03-11T11:00:42.822Z,2.30
2019-03-11T11:05:46.481Z,3.77
2019-03-11T11:10:50.125Z,4.23
2019-03-11T11:15:53.815Z,3.60
2019-03-11T11:20:57.486Z,23.87
2019-03-11T11:26:01.119Z,5.70
2019-03-11T11:31:04.964Z,4.47
2019-03-11T11:36:08.606Z,3.93
2019-03-11T11:41:12.783Z,2.93
2019-03-11T11:46:16.962Z,3.27
2019-03-11T11:51:21.149Z,4.28
2019-03-11T11:56:25.411Z,6.75
2019-03-11T12:01:29.677Z,4.55
2019-03-11T12:06:33.944Z,5.10
2019-03-11T12:11:38.298Z,5.95
2019-03-11T12:16:42.509Z,3.97
2019-03-11T12:21:46.687Z,6.70
2019-03-11T12:26:50.871Z,4.73
2019-03-11T12:31:55.036Z,5.17
2019-03-11T12:36:59.313Z,6.07
2019-03-11T12:42:03.586Z,5.03
2019-03-11T12:47:07.941Z,4.10
2019-03-11T12:52:12.133Z,2.93
2019-03-11T12:57:16.343Z,3.50
2019-03-11T13:02:20.533Z,2.23
2019-03-11T13:07:24.771Z,1.00
2019-03-11T13:12:28.977Z,3.47
2019-03-11T13:17:33.149Z,2.00
2019-03-11T13:22:37.357Z,1.30
2019-03-11T13:27:41.559Z,2.10
2019-03-11T13:32:45.813Z,1.23
2019-03-11T13:37:50.189Z,1.30
2019-03-11T13:42:54.365Z,2.47
2019-03-11T13:47:59.072Z,2.13
2019-03-11T13:53:03.299Z,3.90
2019-03-11T13:58:07.554Z,5.47
2019-03-11T14:03:11.737Z,5.07
2019-03-11T14:08:15.954Z,6.37
2019-03-11T14:13:20.171Z,5.70
2019-03-11T14:18:24.415Z,3.63
2019-03-11T14:23:28.619Z,9.43
2019-03-11T14:28:32.797Z,5.30
2019-03-11T14:33:37.026Z,6.07
2019-03-11T14:38:41.308Z,6.37
2019-03-11T14:43:45.492Z,3.67
2019-03-11T14:48:49.774Z,5.80
2019-03-11T14:53:54.028Z,7.50
2019-03-11T14:58:58.200Z,5.40
2019-03-11T15:04:02.455Z,9.03
2019-03-11T15:09:07.610Z,7.13
2019-03-11T15:14:11.800Z,3.77
2019-03-11T15:19:16.010Z,4.20
2019-03-11T15:24:20.282Z,2.47
2019-03-11T15:29:24.476Z,3.93
2019-03-11T15:34:28.678Z,5.73
2019-03-11T15:39:32.905Z,2.73
2019-03-11T15:44:37.268Z,5.83
2019-03-11T15:49:41.495Z,6.10
2019-03-11T15:54:45.864Z,3.30
2019-03-11T15:59:50.124Z,2.83
2019-03-11T16:04:54.310Z,3.87
2019-03-11T16:09:58.594Z,1.27
2019-03-11T16:15:02.839Z,1.53
2019-03-11T16:20:09.051Z,3.00
2019-03-11T16:25:13.672Z,4.07
2019-03-11T16:30:19.339Z,2.13
2019-03-11T16:35:24.339Z,1.40
2019-03-11T16:40:28.708Z,1.53
2019-03-11T16:45:32.949Z,1.67
2019-03-11T16:50:37.139Z,1.50
2019-03-11T16:55:42.920Z,2.87
2019-03-11T17:00:47.432Z,2.23
2019-03-11T17:05:51.664Z,1.73
2019-03-11T17:10:57.217Z,3.83
2019-03-11T17:16:01.423Z,3.63
2019-03-11T17:21:05.841Z,3.97
2019-03-11T17:26:10.059Z,2.93
2019-03-11T17:31:14.253Z,4.43
2019-03-11T17:36:18.691Z,5.00
2019-03-11T17:41:22.940Z,5.03
2019-03-11T17:46:27.243Z,6.80
2019-03-11T17:51:31.395Z,5.47
2019-03-11T17:56:35.579Z,4.73
2019-03-11T18:01:39.849Z,3.57
2019-03-11T18:06:44.163Z,2.90
2019-03-11T18:11:48.336Z,3.20
2019-03-11T18:16:52.686Z,4.00
2019-03-11T18:21:57.337Z,2.37
2019-03-11T18:27:01.642Z,3.13
2019-03-11T18:32:06.160Z,4.10
2019-03-11T18:37:10.491Z,4.77
2019-03-11T18:42:24.953Z,6.33
2019-03-11T18:47:20.664Z,6.60
2019-03-11T18:52:24.993Z,5.83
2019-03-11T18:57:29.177Z,4.63
2019-03-11T19:02:33.418Z,6.60
2019-03-11T19:07:37.664Z,6.90
2019-03-11T19:12:41.947Z,4.07
2019-03-11T19:17:46.378Z,4.90
2019-03-11T19:22:50.779Z,6.17
2019-03-11T19:27:55.141Z,5.00
2019-03-11T19:32:59.382Z,5.27
2019-03-11T19:38:03.651Z,5.43
2019-03-11T19:43:08.303Z,6.17
2019-03-11T19:48:12.625Z,7.50
2019-03-11T19:53:16.884Z,7.87
2019-03-11T19:58:20.514Z,8.33
2019-03-11T20:03:30.388Z,5.70
2019-03-11T20:08:30.750Z,6.90
2019-03-11T20:13:36.654Z,5.63
2019-03-11T20:18:40.868Z,4.50
2019-03-11T20:23:45.356Z,4.63
2019-03-11T20:28:49.672Z,4.43
2019-03-11T20:33:56.959Z,4.60
2019-03-11T20:39:01.285Z,5.03
2019-03-11T20:44:05.696Z,5.70
2019-03-11T20:49:09.921Z,5.57
2019-03-11T20:54:14.136Z,8.03
2019-03-11T20:59:18.365Z,9.83
2019-03-11T21:04:22.576Z,6.27
2019-03-11T21:09:26.932Z,9.17
2019-03-11T21:14:31.290Z,9.40
2019-03-11T21:19:35.653Z,9.00
2019-03-11T21:24:40.076Z,8.67
2019-03-11T21:29:44.371Z,9.30
2019-03-11T21:34:48.705Z,9.03
2019-03-11T21:39:53.152Z,10.57
2019-03-11T21:44:57.528Z,7.30
2019-03-11T21:50:01.828Z,9.17
2019-03-11T21:55:06.427Z,7.37
2019-03-11T22:00:13.699Z,5.47
2019-03-11T22:05:17.856Z,6.53
2019-03-11T22:10:22.121Z,7.70
2019-03-11T22:15:26.414Z,5.87
2019-03-11T22:20:30.650Z,4.20
2019-03-11T22:25:34.891Z,5.50
2019-03-11T22:30:39.153Z,9.03
2019-03-11T22:35:43.352Z,10.30
2019-03-11T22:40:47.557Z,7.93
2019-03-11T22:45:51.828Z,7.60
2019-03-11T22:50:56.004Z,9.57
2019-03-11T22:56:00.203Z,9.03
2019-03-11T23:01:05.299Z,12.73
2019-03-11T23:06:09.593Z,7.80
2019-03-11T23:11:13.828Z,9.70
2019-03-11T23:16:18.029Z,9.70
2019-03-11T23:21:22.361Z,12.63
2019-03-11T23:26:26.562Z,5.20
2019-03-11T23:31:30.827Z,5.53
2019-03-11T23:36:35.069Z,8.93
2019-03-11T23:41:39.258Z,7.20
2019-03-11T23:46:43.670Z,8.33
2019-03-11T23:51:47.842Z,7.53
2019-03-11T23:56:52.020Z,5.53
